EST,Max TemperatureF,Mean TemperatureF,Min TemperatureF,Max Dew PointF,MeanDew PointF,Min DewpointF,Max Humidity, Mean Humidity, Min Humidity, Max Sea Level PressureIn, Mean Sea Level PressureIn, Min Sea Level PressureIn, Max VisibilityMiles, Mean VisibilityMiles, Min VisibilityMiles, Max Wind SpeedMPH, Mean Wind SpeedMPH, Max Gust SpeedMPH,PrecipitationIn, CloudCover, Events, WindDirDegrees
2013-12-1,41,34,28,34,30,20,93,82,70,30.40,30.15,30.02,10,10,10,6,3,,0.00,8,Snow,358
2013-12-2,39,32,25,38,32,25,100,97,87,30.04,29.95,29.91,10,6,0,5,2,,0.00,5,Fog,16
2013-12-3,47,36,24,40,32,24,100,98,64,30.00,29.92,29.88,10,2,0,7,4,,0.00,7,Fog,8
2013-12-4,45,32,20,33,26,20,99,88,53,30.20,30.12,30.00,10,10,2,5,1,,0.00,3,,28
2013-12-5,51,42,32,52,41,31,100,97,85,30.20,30.03,29.91,10,3,0,10,3,,0.04,8,Fog-Rain,238
2013-12-6,53,42,32,54,46,32,100,95,64,30.18,29.96,29.86,10,6,0,12,8,20,0.42,8,Fog-Rain-Snow,303
2013-12-7,37,32,25,33,28,20,100,83,61,30.49,30.25,30.10,10,9,3,16,6,18,0.04,6,Rain-Snow,325
2013-12-8,30,24,17,23,18,14,98,71,51,30.61,30.54,30.47,10,10,10,6,2,,0.00,3,Snow,79
2013-12-9,32,28,24,32,27,18,100,94,64,30.45,30.21,29.92,10,5,0,9,5,,0.11,7,Fog-Rain-Snow,21
2013-12-10,33,28,21,34,30,17,100,96,79,30.02,29.89,29.80,10,6,0,13,7,,0.04,7,Fog-Snow,254
2013-12-11,27,23,19,21,18,15,93,81,73,30.25,30.18,30.06,10,10,6,14,9,18,0.00,2,Snow,223
2013-12-12,24,18,13,17,7,1,85,63,40,30.31,30.22,30.09,10,10,10,16,8,,0.00,1,,267
2013-12-13,28,20,12,21,12,5,80,63,50,30.39,30.13,30.03,10,10,5,18,10,23,0.00,6,Snow,258
2013-12-14,19,15,11,14,7,0,100,78,57,30.61,30.41,30.09,10,5,1,15,9,,0.17,8,Snow,18
2013-12-15,30,22,14,26,18,14,100,94,70,30.08,29.71,29.50,10,4,1,21,12,28,0.60,7,Snow,12
2013-12-16,26,18,9,18,10,5,100,66,43,30.23,30.01,29.77,10,10,10,18,9,23,0.00,2,Snow,282
2013-12-17,14,4,-5,11,6,-9,94,89,79,30.27,30.13,29.98,10,4,0,14,6,,0.08,6,Fog-Snow,28
2013-12-18,32,21,10,21,16,9,96,80,64,30.11,30.00,29.92,10,10,10,16,7,,0.00,4,,323
2013-12-19,39,26,12,27,22,12,98,75,51,30.14,30.08,29.98,10,10,10,17,7,22,0.00,2,,198
2013-12-20,45,36,26,34,30,25,99,77,60,30.12,30.01,29.93,10,10,10,12,3,,0.00,4,,168
2013-12-21,50,40,31,47,40,31,99,89,72,29.98,29.93,29.87,10,10,10,14,4,,0.00,4,,187
2013-12-22,64,56,47,62,53,48,100,98,86,29.95,29.81,29.75,10,6,0,22,10,33,0.00,6,Fog-Rain,196
2013-12-23,58,48,35,56,43,30,100,97,76,30.14,30.01,29.93,10,7,2,16,6,21,0.73,7,Rain,25
2013-12-24,36,30,20,27,16,6,72,56,42,30.30,30.17,30.09,10,10,10,17,11,29,0.00,3,Snow,327
2013-12-25,24,18,12,9,3,0,73,53,35,30.53,30.47,30.31,10,10,10,20,10,32,0.00,2,,356
2013-12-26,28,22,17,28,21,11,100,88,67,30.47,30.26,30.10,10,8,1,8,3,,0.02,6,Snow,272
2013-12-27,34,22,9,27,18,9,98,81,50,30.32,30.27,30.23,10,10,10,12,4,,0.00,3,,194
2013-12-28,47,34,20,26,24,19,100,75,42,30.24,30.13,30.04,10,10,10,14,7,,0.00,1,,196
2013-12-29,39,31,23,39,35,23,100,97,75,30.05,29.70,29.45,10,8,2,15,5,21,1.14,7,Rain,11
2013-12-30,38,26,12,36,26,5,100,87,40,30.20,29.78,29.62,10,5,1,23,5,29,0.00,1,,225
2013-12-31,25,17,9,18,9,1,95,68,42,30.24,30.13,30.03,10,10,10,13,6,23,0.00,2,Snow,254